createdAt,value
2023-05-17T00:00:57.389Z,3.60
2023-05-17T00:01:57.383Z,3.80
2023-05-17T00:02:57.377Z,3.80
2023-05-17T00:03:57.330Z,3.60
2023-05-17T00:04:57.381Z,3.60
2023-05-17T00:05:57.251Z,3.60
2023-05-17T00:06:57.304Z,3.80
2023-05-17T00:07:57.320Z,3.60
2023-05-17T00:08:57.244Z,3.80
2023-05-17T00:09:58.693Z,4.30
2023-05-17T00:10:57.285Z,4.30
2023-05-17T00:11:57.244Z,4.20
2023-05-17T00:12:57.173Z,4.20
2023-05-17T00:13:57.233Z,3.60
2023-05-17T00:14:57.169Z,4.10
2023-05-17T00:15:59.232Z,4.20
2023-05-17T00:16:57.150Z,4.20
2023-05-17T00:17:57.297Z,4.20
2023-05-17T00:18:57.238Z,4.10
2023-05-17T00:19:57.213Z,3.90
2023-05-17T00:20:57.144Z,4.30
2023-05-17T00:21:57.103Z,3.70
2023-05-17T00:22:57.221Z,4.40
2023-05-17T00:23:57.056Z,4.30
2023-05-17T00:24:57.097Z,4.10
2023-05-17T00:25:57.049Z,4.00
2023-05-17T00:26:57.036Z,3.80
2023-05-17T00:27:56.994Z,4.50
2023-05-17T00:28:57.049Z,4.20
2023-05-17T00:29:58.596Z,4.10
2023-05-17T00:30:56.997Z,4.20
2023-05-17T00:31:56.979Z,4.00
2023-05-17T00:32:56.965Z,3.90
2023-05-17T00:33:56.954Z,4.50
2023-05-17T00:34:57.014Z,4.30
2023-05-17T00:35:57.009Z,4.40
2023-05-17T00:36:58.410Z,4.80
2023-05-17T00:37:56.965Z,4.40
2023-05-17T00:38:56.968Z,4.70
2023-05-17T00:39:56.918Z,4.30
2023-05-17T00:40:56.893Z,4.30
2023-05-17T00:41:56.876Z,3.80
2023-05-17T00:42:58.802Z,4.50
2023-05-17T00:43:57.015Z,4.20
2023-05-17T00:44:56.892Z,4.70
2023-05-17T00:45:56.825Z,4.60
2023-05-17T00:46:56.805Z,4.80
2023-05-17T00:47:56.877Z,5.00
2023-05-17T00:48:56.862Z,5.10
2023-05-17T00:49:58.266Z,4.50
2023-05-17T00:50:56.785Z,4.90
2023-05-17T00:51:56.753Z,4.80
2023-05-17T00:52:56.745Z,4.70
2023-05-17T00:53:56.747Z,4.50
2023-05-17T00:54:56.749Z,5.00
2023-05-17T00:55:58.196Z,4.70
2023-05-17T00:56:56.737Z,4.80
2023-05-17T00:57:56.754Z,4.90
2023-05-17T00:58:56.689Z,4.90
2023-05-17T00:59:56.673Z,4.60
2023-05-17T01:00:56.648Z,5.10
2023-05-17T01:01:56.671Z,4.80
2023-05-17T01:02:58.735Z,5.40
2023-05-17T01:03:56.768Z,5.40
2023-05-17T01:04:56.620Z,5.10
2023-05-17T01:05:56.635Z,5.10
2023-05-17T01:06:56.650Z,5.40
2023-05-17T01:07:56.665Z,5.10
2023-05-17T01:08:56.694Z,4.90
2023-05-17T01:09:56.577Z,5.10
2023-05-17T01:10:56.558Z,5.30
2023-05-17T01:11:56.605Z,5.50
2023-05-17T01:12:56.537Z,5.80
2023-05-17T01:13:56.530Z,5.50
2023-05-17T01:14:56.522Z,5.20
2023-05-17T01:15:58.475Z,5.60
2023-05-17T01:16:56.552Z,5.40
2023-05-17T01:17:56.616Z,5.60
2023-05-17T01:18:56.578Z,5.40
2023-05-17T01:19:56.653Z,5.50
2023-05-17T01:20:56.462Z,5.40
2023-05-17T01:21:56.672Z,5.00
2023-05-17T01:22:56.411Z,5.60
2023-05-17T01:23:56.402Z,5.70
2023-05-17T01:24:58.351Z,5.60
2023-05-17T01:25:56.435Z,5.40
2023-05-17T01:26:56.387Z,5.70
2023-05-17T01:27:56.381Z,5.50
2023-05-17T01:28:56.360Z,5.60
2023-05-17T01:29:58.286Z,5.70
2023-05-17T01:30:56.433Z,5.40
2023-05-17T01:31:56.326Z,6.00
2023-05-17T01:32:56.373Z,6.00
2023-05-17T01:33:56.419Z,5.60
2023-05-17T01:34:56.335Z,5.60
2023-05-17T01:35:56.366Z,6.40
2023-05-17T01:36:58.268Z,5.90
2023-05-17T01:37:56.282Z,6.10
2023-05-17T01:38:56.231Z,6.00
2023-05-17T01:39:56.247Z,6.10
2023-05-17T01:40:56.231Z,6.30
2023-05-17T01:41:56.217Z,6.20
2023-05-17T01:42:56.218Z,6.50
2023-05-17T01:43:56.180Z,6.20
2023-05-17T01:44:56.254Z,5.90
2023-05-17T01:45:56.184Z,6.20
2023-05-17T01:46:56.200Z,5.80
2023-05-17T01:47:56.183Z,5.90
2023-05-17T01:48:56.229Z,6.40
2023-05-17T01:49:57.617Z,6.20
2023-05-17T01:50:56.114Z,6.70
2023-05-17T01:51:56.089Z,6.00
2023-05-17T01:52:56.091Z,6.30
2023-05-17T01:53:56.097Z,5.80
2023-05-17T01:54:56.159Z,6.10
2023-05-17T01:55:57.535Z,6.20
2023-05-17T01:56:56.100Z,6.10
2023-05-17T01:57:56.030Z,6.00
2023-05-17T01:58:56.142Z,6.00
2023-05-17T01:59:56.071Z,6.10
2023-05-17T02:00:56.012Z,6.00
2023-05-17T02:01:56.424Z,5.80
2023-05-17T02:02:56.067Z,5.50
2023-05-17T02:03:55.997Z,5.80
2023-05-17T02:04:55.977Z,6.40
2023-05-17T02:05:55.939Z,6.30
2023-05-17T02:06:55.914Z,6.00
2023-05-17T02:07:55.931Z,5.70
2023-05-17T02:08:57.964Z,5.70
2023-05-17T02:09:56.004Z,6.00
2023-05-17T02:10:55.892Z,5.70
2023-05-17T02:11:55.876Z,5.50
2023-05-17T02:12:55.916Z,6.40
2023-05-17T02:13:55.861Z,5.50
2023-05-17T02:14:55.913Z,6.00
2023-05-17T02:15:55.846Z,6.40
2023-05-17T02:16:55.846Z,6.30
2023-05-17T02:17:56.019Z,5.90
2023-05-17T02:18:55.889Z,6.40
2023-05-17T02:19:55.789Z,6.20
2023-05-17T02:20:55.814Z,6.00
2023-05-17T02:21:57.266Z,6.00
2023-05-17T02:22:55.821Z,6.30
2023-05-17T02:23:55.765Z,6.40
2023-05-17T02:24:55.755Z,6.60
2023-05-17T02:25:55.725Z,6.50
2023-05-17T02:26:55.720Z,6.00
2023-05-17T02:27:55.758Z,6.40
2023-05-17T02:28:57.653Z,6.80
2023-05-17T02:29:55.717Z,7.80
2023-05-17T02:30:55.699Z,6.40
2023-05-17T02:31:55.705Z,6.80
2023-05-17T02:32:55.708Z,6.40
2023-05-17T02:33:55.763Z,6.70
2023-05-17T02:34:55.809Z,6.50
2023-05-17T02:35:55.719Z,7.00
2023-05-17T02:36:55.640Z,6.60
2023-05-17T02:37:55.621Z,6.50
2023-05-17T02:38:55.614Z,7.30
2023-05-17T02:39:55.610Z,6.90
2023-05-17T02:40:55.638Z,6.70
2023-05-17T02:41:57.070Z,6.80
2023-05-17T02:42:55.552Z,6.80
2023-05-17T02:43:55.541Z,7.10
2023-05-17T02:44:55.531Z,7.10
2023-05-17T02:45:55.584Z,7.50
2023-05-17T02:46:55.544Z,7.10
2023-05-17T02:47:55.638Z,7.10
2023-05-17T02:48:55.490Z,7.10
2023-05-17T02:49:55.465Z,6.30
2023-05-17T02:50:55.457Z,7.10
2023-05-17T02:51:55.445Z,7.10
2023-05-17T02:52:55.440Z,6.60
2023-05-17T02:53:57.377Z,6.00
2023-05-17T02:54:56.950Z,6.60
2023-05-17T02:55:55.502Z,6.60
2023-05-17T02:56:55.384Z,7.30
2023-05-17T02:57:55.344Z,6.50
2023-05-17T02:58:55.377Z,7.10
2023-05-17T02:59:55.412Z,6.90
2023-05-17T03:00:55.609Z,6.30
2023-05-17T03:01:55.292Z,6.60
2023-05-17T03:02:55.378Z,7.00
2023-05-17T03:03:55.488Z,6.60
2023-05-17T03:04:55.294Z,6.40
2023-05-17T03:05:55.343Z,6.90
2023-05-17T03:06:55.542Z,7.00
2023-05-17T03:07:55.248Z,6.80
2023-05-17T03:08:55.251Z,6.40
2023-05-17T03:09:55.324Z,6.90
2023-05-17T03:10:55.243Z,7.30
2023-05-17T03:11:55.225Z,6.70
2023-05-17T03:12:55.226Z,6.60
2023-05-17T03:13:57.187Z,6.80
2023-05-17T03:14:55.215Z,6.70
2023-05-17T03:15:55.195Z,6.80
2023-05-17T03:16:55.171Z,6.20
2023-05-17T03:17:55.132Z,7.10
2023-05-17T03:18:55.350Z,6.40
2023-05-17T03:19:55.278Z,6.70
2023-05-17T03:20:56.615Z,6.70
2023-05-17T03:21:55.055Z,6.10
2023-05-17T03:22:55.043Z,6.60
2023-05-17T03:23:55.143Z,7.20
2023-05-17T03:24:55.091Z,6.70
2023-05-17T03:25:55.021Z,7.00
2023-05-17T03:26:57.024Z,7.50
2023-05-17T03:27:55.084Z,8.20
2023-05-17T03:28:55.053Z,7.60
2023-05-17T03:29:55.023Z,7.70
2023-05-17T03:30:55.100Z,7.40
2023-05-17T03:31:55.007Z,7.80
2023-05-17T03:32:55.079Z,7.30
2023-05-17T03:33:57.018Z,7.90
2023-05-17T03:34:54.963Z,7.40
2023-05-17T03:35:54.996Z,7.10
2023-05-17T03:36:54.969Z,7.50
2023-05-17T03:37:54.998Z,7.00
2023-05-17T03:38:54.910Z,7.00
2023-05-17T03:39:54.865Z,6.90
2023-05-17T03:40:56.340Z,7.10
2023-05-17T03:41:54.951Z,7.40
2023-05-17T03:42:54.859Z,7.20
2023-05-17T03:43:54.876Z,6.90
2023-05-17T03:44:54.876Z,7.60
2023-05-17T03:45:54.820Z,7.50
2023-05-17T03:46:54.874Z,6.90
2023-05-17T03:47:56.878Z,6.40
2023-05-17T03:48:54.833Z,7.20
2023-05-17T03:49:54.804Z,7.30
2023-05-17T03:50:54.862Z,7.00
2023-05-17T03:51:54.867Z,7.20
2023-05-17T03:52:54.749Z,7.90
2023-05-17T03:53:54.770Z,7.90
2023-05-17T03:54:54.699Z,8.60
2023-05-17T03:55:54.742Z,8.00
2023-05-17T03:56:54.759Z,8.40
2023-05-17T03:57:54.771Z,8.00
2023-05-17T03:58:54.696Z,8.10
2023-05-17T03:59:56.094Z,8.20
2023-05-17T04:00:54.687Z,7.80
2023-05-17T04:01:54.670Z,7.90
2023-05-17T04:02:54.661Z,8.00
2023-05-17T04:03:54.719Z,8.00
2023-05-17T04:04:54.618Z,7.70
2023-05-17T04:05:56.641Z,7.70
2023-05-17T04:06:54.650Z,7.50
2023-05-17T04:07:54.633Z,8.00
2023-05-17T04:08:54.591Z,8.70
2023-05-17T04:09:54.670Z,7.80
2023-05-17T04:10:54.572Z,8.40
2023-05-17T04:11:56.059Z,8.10
2023-05-17T04:12:54.536Z,8.60
2023-05-17T04:13:54.577Z,9.10
2023-05-17T04:14:56.299Z,8.80
2023-05-17T04:15:54.597Z,8.80
2023-05-17T04:16:56.462Z,9.00
2023-05-17T04:17:54.546Z,8.30
2023-05-17T04:18:54.752Z,8.90
2023-05-17T04:19:54.573Z,8.60
2023-05-17T04:20:54.490Z,8.30
2023-05-17T04:21:54.576Z,8.00
2023-05-17T04:22:54.510Z,8.80
2023-05-17T04:23:55.927Z,8.40
2023-05-17T04:24:54.545Z,7.80
2023-05-17T04:25:54.426Z,8.20
2023-05-17T04:26:54.295Z,8.30
2023-05-17T04:27:54.394Z,9.00
2023-05-17T04:28:54.423Z,8.90
2023-05-17T04:29:54.429Z,8.70
2023-05-17T04:30:56.359Z,7.80
2023-05-17T04:31:54.426Z,8.80
2023-05-17T04:32:54.356Z,7.80
2023-05-17T04:33:54.421Z,8.20
2023-05-17T04:34:54.352Z,7.90
2023-05-17T04:35:54.263Z,7.50
2023-05-17T04:36:54.379Z,7.90
2023-05-17T04:37:55.778Z,7.70
2023-05-17T04:38:54.422Z,7.50
2023-05-17T04:39:54.290Z,7.50
2023-05-17T04:40:54.242Z,8.00
2023-05-17T04:41:54.253Z,7.90
2023-05-17T04:42:54.183Z,7.40
2023-05-17T04:43:57.858Z,7.80
2023-05-17T04:44:56.199Z,7.40
2023-05-17T04:45:54.169Z,7.20
2023-05-17T04:46:54.247Z,7.10
2023-05-17T04:47:54.297Z,7.70
2023-05-17T04:48:54.317Z,7.60
2023-05-17T04:49:54.187Z,7.60
2023-05-17T04:50:54.117Z,7.20
2023-05-17T04:51:54.063Z,7.30
2023-05-17T04:52:54.173Z,7.60
2023-05-17T04:53:54.101Z,6.70
2023-05-17T04:54:54.069Z,6.40
2023-05-17T04:55:54.157Z,6.20
2023-05-17T04:56:54.046Z,5.60
2023-05-17T04:57:54.120Z,5.60
2023-05-17T04:58:54.078Z,5.40
2023-05-17T04:59:54.024Z,5.20
2023-05-17T05:00:54.053Z,4.80
2023-05-17T05:01:54.106Z,4.80
2023-05-17T05:02:56.003Z,5.10
2023-05-17T05:03:54.073Z,4.70
2023-05-17T05:04:54.078Z,5.80
2023-05-17T05:05:54.004Z,5.70
2023-05-17T05:06:53.971Z,5.50
2023-05-17T05:07:53.957Z,5.60
2023-05-17T05:08:53.954Z,5.30
2023-05-17T05:09:55.927Z,5.40
2023-05-17T05:10:54.003Z,4.90
2023-05-17T05:11:53.987Z,5.30
2023-05-17T05:12:53.887Z,5.30
2023-05-17T05:13:53.849Z,5.50
2023-05-17T05:14:53.856Z,5.40
2023-05-17T05:15:53.866Z,5.30
2023-05-17T05:16:55.796Z,5.50
2023-05-17T05:17:53.974Z,5.60
2023-05-17T05:18:54.126Z,5.40
2023-05-17T05:19:53.967Z,5.60
2023-05-17T05:20:55.653Z,5.40
2023-05-17T05:21:53.761Z,5.00
2023-05-17T05:22:53.806Z,4.70
2023-05-17T05:23:53.814Z,5.30
2023-05-17T05:24:53.857Z,4.90
2023-05-17T05:25:53.805Z,5.20
2023-05-17T05:26:53.778Z,5.30
2023-05-17T05:27:55.662Z,4.90
2023-05-17T05:28:53.743Z,5.00
2023-05-17T05:29:53.721Z,6.10
2023-05-17T05:30:53.751Z,5.50
2023-05-17T05:31:53.703Z,4.80
2023-05-17T05:32:53.678Z,4.70
2023-05-17T05:33:53.719Z,5.30
2023-05-17T05:34:55.641Z,5.30
2023-05-17T05:35:53.685Z,5.00
2023-05-17T05:36:53.595Z,5.40
2023-05-17T05:37:53.637Z,5.30
2023-05-17T05:38:53.645Z,4.80
2023-05-17T05:39:53.572Z,4.90
2023-05-17T05:40:55.550Z,5.30
2023-05-17T05:41:53.586Z,5.00
2023-05-17T05:42:53.539Z,4.50
2023-05-17T05:43:53.594Z,4.70
2023-05-17T05:44:53.516Z,5.10
2023-05-17T05:45:53.521Z,4.80
2023-05-17T05:46:53.564Z,4.70
2023-05-17T05:47:55.127Z,4.30
2023-05-17T05:48:53.533Z,4.50
2023-05-17T05:49:53.536Z,4.30
2023-05-17T05:50:53.474Z,4.80
2023-05-17T05:51:53.370Z,5.00
2023-05-17T05:52:57.980Z,4.20
2023-05-17T05:53:55.943Z,4.50
2023-05-17T05:54:53.565Z,4.60
2023-05-17T05:55:53.433Z,3.80
2023-05-17T05:56:53.411Z,4.00
2023-05-17T05:57:53.376Z,4.70
2023-05-17T05:58:53.404Z,4.00
2023-05-17T05:59:53.372Z,4.70
2023-05-17T06:00:54.851Z,4.10
2023-05-17T06:01:53.323Z,3.90
2023-05-17T06:02:53.437Z,4.00
2023-05-17T06:03:53.330Z,4.30
2023-05-17T06:04:53.350Z,4.40
2023-05-17T06:05:53.424Z,4.70
2023-05-17T06:06:54.903Z,4.30
2023-05-17T06:07:53.394Z,3.80
2023-05-17T06:08:53.306Z,4.50
2023-05-17T06:09:53.271Z,4.20
2023-05-17T06:10:53.302Z,4.70
2023-05-17T06:11:53.298Z,4.00
2023-05-17T06:12:53.364Z,4.20
2023-05-17T06:13:53.240Z,4.20
2023-05-17T06:14:53.263Z,3.60
2023-05-17T06:15:53.223Z,3.50
2023-05-17T06:16:54.255Z,3.70
2023-05-17T06:17:53.409Z,3.70
2023-05-17T06:18:53.261Z,3.30
2023-05-17T06:19:55.262Z,3.50
2023-05-17T06:20:54.120Z,3.40
2023-05-17T06:21:53.223Z,3.60
2023-05-17T06:22:53.177Z,3.30
2023-05-17T06:23:53.121Z,2.90
2023-05-17T06:24:53.105Z,2.70
2023-05-17T06:25:53.369Z,2.70
2023-05-17T06:26:53.443Z,2.90
2023-05-17T06:27:53.075Z,2.80
2023-05-17T06:28:53.155Z,2.40
2023-05-17T06:29:53.082Z,3.00
2023-05-17T06:30:53.127Z,2.40
2023-05-17T06:31:53.104Z,2.80
2023-05-17T06:32:53.006Z,2.50
2023-05-17T06:33:53.060Z,2.80
2023-05-17T06:34:53.015Z,3.20
2023-05-17T06:35:56.088Z,3.00
2023-05-17T06:36:52.997Z,2.90
2023-05-17T06:37:52.969Z,2.50
2023-05-17T06:38:53.050Z,2.50
2023-05-17T06:40:00.064Z,3.00
2023-05-17T06:40:54.061Z,2.10
2023-05-17T06:41:52.967Z,3.20
2023-05-17T06:42:54.375Z,2.40
2023-05-17T06:43:52.983Z,2.60
2023-05-17T06:44:52.917Z,2.60
2023-05-17T06:45:54.459Z,2.30
2023-05-17T06:46:52.910Z,2.40
2023-05-17T06:47:52.972Z,2.80
2023-05-17T06:48:52.959Z,2.30
2023-05-17T06:49:52.836Z,2.30
2023-05-17T06:50:54.777Z,1.90
2023-05-17T06:51:53.026Z,2.40
2023-05-17T06:52:53.869Z,2.00
2023-05-17T06:53:53.796Z,2.40
2023-05-17T06:54:53.200Z,2.90
2023-05-17T06:55:53.579Z,2.40
2023-05-17T06:56:54.735Z,2.70
2023-05-17T06:57:52.777Z,2.40
2023-05-17T06:58:54.704Z,2.50
2023-05-17T06:59:52.742Z,2.30
2023-05-17T07:00:52.762Z,2.40
2023-05-17T07:01:52.717Z,2.60
2023-05-17T07:02:52.795Z,2.40
2023-05-17T07:03:52.858Z,2.80
2023-05-17T07:04:53.223Z,2.50
2023-05-17T07:05:52.686Z,2.20
2023-05-17T07:06:52.640Z,2.40
2023-05-17T07:07:52.758Z,2.40
2023-05-17T07:08:52.682Z,2.10
2023-05-17T07:09:52.585Z,2.60
2023-05-17T07:10:52.898Z,2.20
2023-05-17T07:11:52.634Z,2.50
2023-05-17T07:12:52.612Z,2.00
2023-05-17T07:13:54.339Z,2.20
2023-05-17T07:14:52.615Z,2.20
2023-05-17T07:15:52.550Z,2.10
2023-05-17T07:16:52.594Z,2.20
2023-05-17T07:17:52.748Z,2.20
2023-05-17T07:18:52.688Z,2.90
2023-05-17T07:19:52.668Z,2.50
2023-05-17T07:20:52.561Z,2.50
2023-05-17T07:21:52.497Z,3.00
2023-05-17T07:22:52.514Z,2.30
2023-05-17T07:23:52.537Z,1.90
2023-05-17T07:24:53.917Z,2.30
2023-05-17T07:25:52.425Z,2.20
2023-05-17T07:26:52.864Z,2.10
2023-05-17T07:27:52.514Z,2.10
2023-05-17T07:28:52.419Z,2.10
2023-05-17T07:29:52.436Z,2.60
2023-05-17T07:30:52.438Z,2.40
2023-05-17T07:31:53.932Z,2.40
2023-05-17T07:32:52.497Z,2.60
2023-05-17T07:33:52.392Z,2.10
2023-05-17T07:34:52.332Z,2.50
2023-05-17T07:35:53.159Z,2.40
2023-05-17T07:36:52.305Z,2.00
2023-05-17T07:37:52.345Z,2.20
2023-05-17T07:38:54.307Z,1.90
2023-05-17T07:39:53.110Z,2.50
2023-05-17T07:40:52.313Z,2.30
2023-05-17T07:41:52.334Z,2.60
2023-05-17T07:42:52.235Z,2.40
2023-05-17T07:43:52.251Z,2.20
2023-05-17T07:44:52.306Z,2.10
2023-05-17T07:45:53.215Z,2.50
2023-05-17T07:46:52.310Z,2.60
2023-05-17T07:47:52.263Z,2.20
2023-05-17T07:48:52.427Z,2.60
2023-05-17T07:49:52.254Z,2.50
2023-05-17T07:50:52.199Z,2.00
2023-05-17T07:51:54.130Z,2.40
2023-05-17T07:52:54.188Z,2.50
2023-05-17T07:53:52.178Z,2.20
2023-05-17T07:54:52.118Z,2.50
2023-05-17T07:55:52.252Z,2.20
2023-05-17T07:56:52.064Z,2.50
2023-05-17T07:57:52.112Z,2.50
2023-05-17T07:58:54.117Z,2.30
2023-05-17T07:59:54.084Z,1.80
2023-05-17T08:00:52.146Z,2.40
2023-05-17T08:01:52.135Z,2.20
2023-05-17T08:02:52.097Z,2.30
2023-05-17T08:03:52.310Z,2.10
2023-05-17T08:04:52.253Z,2.20
2023-05-17T08:05:54.070Z,2.20
2023-05-17T08:06:52.027Z,2.20
2023-05-17T08:07:52.053Z,2.50
2023-05-17T08:08:52.149Z,2.20
2023-05-17T08:09:52.050Z,2.00
2023-05-17T08:10:52.000Z,1.90
2023-05-17T08:11:53.497Z,2.30
2023-05-17T08:12:53.942Z,2.10
2023-05-17T08:13:51.979Z,2.00
2023-05-17T08:14:51.943Z,2.20
2023-05-17T08:15:58.462Z,1.90
2023-05-17T08:16:52.958Z,2.30
2023-05-17T08:17:52.035Z,2.50
2023-05-17T08:18:52.197Z,2.40
2023-05-17T08:19:51.912Z,2.10
2023-05-17T08:20:51.784Z,2.10
2023-05-17T08:21:51.829Z,2.90
2023-05-17T08:22:51.837Z,2.40
2023-05-17T08:23:51.874Z,1.80
2023-05-17T08:24:51.818Z,2.10
2023-05-17T08:25:52.176Z,1.80
2023-05-17T08:26:51.785Z,2.00
2023-05-17T08:27:54.564Z,2.30
2023-05-17T08:28:53.480Z,1.90
2023-05-17T08:29:53.834Z,2.00
2023-05-17T08:30:51.719Z,2.00
2023-05-17T08:31:51.787Z,2.50
2023-05-17T08:32:51.870Z,2.10
2023-05-17T08:33:51.746Z,2.00
2023-05-17T08:34:51.817Z,2.00
2023-05-17T08:35:53.688Z,2.10
2023-05-17T08:36:51.724Z,1.90
2023-05-17T08:37:51.803Z,2.00
2023-05-17T08:38:51.685Z,2.80
2023-05-17T08:39:51.672Z,2.90
2023-05-17T08:40:53.661Z,2.30
2023-05-17T08:41:51.587Z,1.70
2023-05-17T08:42:51.681Z,2.10
2023-05-17T08:43:51.616Z,2.40
2023-05-17T08:44:51.580Z,2.10
2023-05-17T08:45:51.531Z,2.10
2023-05-17T08:46:51.648Z,2.00
2023-05-17T08:47:53.059Z,2.10
2023-05-17T08:48:52.235Z,2.20
2023-05-17T08:49:51.537Z,2.10
2023-05-17T08:50:51.777Z,2.30
2023-05-17T08:51:51.528Z,2.00
2023-05-17T08:52:51.630Z,2.30
2023-05-17T08:53:52.106Z,2.20
2023-05-17T08:54:51.535Z,2.20
2023-05-17T08:55:53.354Z,2.30
2023-05-17T08:56:51.476Z,2.10
2023-05-17T08:57:51.467Z,1.70
2023-05-17T08:58:57.272Z,2.10
2023-05-17T08:59:52.397Z,2.30
2023-05-17T09:00:51.460Z,2.20
2023-05-17T09:01:51.369Z,2.10
2023-05-17T09:02:51.438Z,2.10
2023-05-17T09:03:51.456Z,1.90
2023-05-17T09:04:51.491Z,2.20
2023-05-17T09:05:52.383Z,2.30
2023-05-17T09:06:51.322Z,2.20
2023-05-17T09:07:51.321Z,1.80
2023-05-17T09:08:51.291Z,2.00
2023-05-17T09:09:51.357Z,2.00
2023-05-17T09:10:51.583Z,2.00
2023-05-17T09:11:51.291Z,2.10
2023-05-17T09:12:51.334Z,2.30
2023-05-17T09:13:51.316Z,2.10
2023-05-17T09:14:51.274Z,2.10
2023-05-17T09:15:51.600Z,1.90
2023-05-17T09:16:51.204Z,2.10
2023-05-17T09:17:51.268Z,2.50
2023-05-17T09:18:51.418Z,2.20
2023-05-17T09:19:51.351Z,2.20
2023-05-17T09:20:52.382Z,2.30
2023-05-17T09:21:51.507Z,2.10
2023-05-17T09:22:51.141Z,2.00
2023-05-17T09:24:01.733Z,2.40
2023-05-17T09:24:52.127Z,2.30
2023-05-17T09:25:51.263Z,2.60
2023-05-17T09:26:51.350Z,2.40
2023-05-17T09:27:53.009Z,2.40
2023-05-17T09:28:51.082Z,2.00
2023-05-17T09:29:51.157Z,2.00
2023-05-17T09:30:51.070Z,2.50
2023-05-17T09:31:51.324Z,2.50
2023-05-17T09:32:52.961Z,2.20
2023-05-17T09:33:51.054Z,2.00
2023-05-17T09:34:51.032Z,2.30
2023-05-17T09:35:51.012Z,1.80
2023-05-17T09:36:51.023Z,2.10
2023-05-17T09:37:50.983Z,2.20
2023-05-17T09:38:51.030Z,1.90
2023-05-17T09:39:50.960Z,2.00
2023-05-17T09:40:50.921Z,1.60
2023-05-17T09:41:50.916Z,1.80
2023-05-17T09:42:50.916Z,1.60
2023-05-17T09:43:50.996Z,1.90
2023-05-17T09:44:50.957Z,1.70
2023-05-17T09:45:50.848Z,2.10
2023-05-17T09:46:50.870Z,2.00
2023-05-17T09:47:50.941Z,2.20
2023-05-17T09:48:51.036Z,1.90
2023-05-17T09:49:50.883Z,1.80
2023-05-17T09:50:52.796Z,1.70
2023-05-17T09:51:50.852Z,1.80
2023-05-17T09:52:50.900Z,2.00
2023-05-17T09:53:50.828Z,2.20
2023-05-17T09:54:50.835Z,2.00
2023-05-17T09:55:51.113Z,2.30
2023-05-17T09:56:52.749Z,1.50
2023-05-17T09:57:50.870Z,2.00
2023-05-17T09:58:50.814Z,2.70
2023-05-17T09:59:50.763Z,2.30
2023-05-17T10:00:50.764Z,1.90
2023-05-17T10:01:50.855Z,1.80
2023-05-17T10:02:52.789Z,2.20
2023-05-17T10:03:50.777Z,2.20
2023-05-17T10:04:50.744Z,2.10
2023-05-17T10:05:50.685Z,2.10
2023-05-17T10:06:52.372Z,1.80
2023-05-17T10:07:50.631Z,1.90
2023-05-17T10:08:50.613Z,1.80
2023-05-17T10:09:50.644Z,1.90
2023-05-17T10:10:50.579Z,1.70
2023-05-17T10:11:50.662Z,2.10
2023-05-17T10:12:50.773Z,1.90
2023-05-17T10:13:50.582Z,1.80
2023-05-17T10:14:50.871Z,2.00
2023-05-17T10:15:50.665Z,2.00
2023-05-17T10:16:50.662Z,1.80
2023-05-17T10:17:50.612Z,1.80
2023-05-17T10:18:50.659Z,2.00
2023-05-17T10:19:50.689Z,1.70
2023-05-17T10:20:52.467Z,1.90
2023-05-17T10:21:50.561Z,2.20
2023-05-17T10:22:50.496Z,1.90
2023-05-17T10:23:50.481Z,2.00
2023-05-17T10:24:50.486Z,2.00
2023-05-17T10:25:50.534Z,2.00
2023-05-17T10:26:50.608Z,1.90
2023-05-17T10:27:50.854Z,1.90
2023-05-17T10:28:50.413Z,2.00
2023-05-17T10:29:50.914Z,2.10
2023-05-17T10:30:50.461Z,2.20
2023-05-17T10:31:50.414Z,1.80
2023-05-17T10:32:50.514Z,2.00
2023-05-17T10:33:50.455Z,2.10
2023-05-17T10:35:01.558Z,2.00
2023-05-17T10:35:51.549Z,1.90
2023-05-17T10:36:50.481Z,1.70
2023-05-17T10:37:50.344Z,2.30
2023-05-17T10:38:50.335Z,1.90
2023-05-17T10:39:50.312Z,2.10
2023-05-17T10:40:50.375Z,2.00
2023-05-17T10:41:50.720Z,1.70
2023-05-17T10:42:50.436Z,2.10
2023-05-17T10:43:51.831Z,1.90
2023-05-17T10:44:50.278Z,2.00
2023-05-17T10:45:50.293Z,1.90
2023-05-17T10:46:50.231Z,2.10
2023-05-17T10:47:50.329Z,1.90
2023-05-17T10:48:52.277Z,1.80
2023-05-17T10:49:50.248Z,1.60
2023-05-17T10:51:00.736Z,2.00
2023-05-17T10:51:51.175Z,1.80
2023-05-17T10:52:50.180Z,2.00
2023-05-17T10:53:50.225Z,2.10
2023-05-17T10:54:50.264Z,1.90
2023-05-17T10:55:50.475Z,2.00
2023-05-17T10:56:50.212Z,1.80
2023-05-17T10:57:51.359Z,2.00
2023-05-17T10:58:50.114Z,1.80
2023-05-17T10:59:50.176Z,1.80
2023-05-17T11:00:50.095Z,2.00
2023-05-17T11:01:50.058Z,1.80
2023-05-17T11:02:50.131Z,2.00
2023-05-17T11:03:50.039Z,2.00
2023-05-17T11:04:50.155Z,2.00
2023-05-17T11:05:50.201Z,2.00
2023-05-17T11:06:50.054Z,1.80
2023-05-17T11:07:50.119Z,2.00
2023-05-17T11:08:50.055Z,2.30
2023-05-17T11:09:50.014Z,2.20
2023-05-17T11:10:49.986Z,1.80
2023-05-17T11:11:49.946Z,1.90
2023-05-17T11:12:51.855Z,1.90
2023-05-17T11:13:50.203Z,2.10
2023-05-17T11:14:49.973Z,1.80
2023-05-17T11:15:49.966Z,1.80
2023-05-17T11:16:49.927Z,2.00
2023-05-17T11:17:50.024Z,2.10
2023-05-17T11:18:51.915Z,1.90
2023-05-17T11:19:50.324Z,2.20
2023-05-17T11:20:50.100Z,1.90
2023-05-17T11:21:49.844Z,1.90
2023-05-17T11:22:49.840Z,2.00
2023-05-17T11:23:49.870Z,1.80
2023-05-17T11:24:49.816Z,2.30
2023-05-17T11:25:49.832Z,1.90
2023-05-17T11:26:49.811Z,1.80
2023-05-17T11:27:51.303Z,2.10
2023-05-17T11:28:49.839Z,1.90
2023-05-17T11:29:49.774Z,1.80
2023-05-17T11:30:49.779Z,2.10
2023-05-17T11:31:49.738Z,2.00
2023-05-17T11:32:49.892Z,1.70
2023-05-17T11:33:49.752Z,1.90
2023-05-17T11:34:51.196Z,1.80
2023-05-17T11:35:51.713Z,2.30
2023-05-17T11:36:51.204Z,1.90
2023-05-17T11:37:49.789Z,1.70
2023-05-17T11:38:52.305Z,1.90
2023-05-17T11:39:50.670Z,2.00
2023-05-17T11:40:49.737Z,1.80
2023-05-17T11:41:49.956Z,2.10
2023-05-17T11:42:49.656Z,1.90
2023-05-17T11:43:49.646Z,2.20
2023-05-17T11:44:49.598Z,1.80
2023-05-17T11:45:52.116Z,1.90
2023-05-17T11:46:49.649Z,1.90
2023-05-17T11:47:49.641Z,1.60
2023-05-17T11:48:49.587Z,1.90
2023-05-17T11:49:49.545Z,1.80
2023-05-17T11:50:49.551Z,2.20
2023-05-17T11:51:49.541Z,2.30
2023-05-17T11:52:49.512Z,1.80
2023-05-17T11:53:49.500Z,1.70
2023-05-17T11:54:49.505Z,2.20
2023-05-17T11:55:49.530Z,2.00
2023-05-17T11:56:49.488Z,2.00
2023-05-17T11:57:49.507Z,2.00
2023-05-17T11:58:50.896Z,2.00
2023-05-17T11:59:49.453Z,2.50
2023-05-17T12:00:49.467Z,2.10
2023-05-17T12:01:49.454Z,1.90
2023-05-17T12:02:49.495Z,1.80
2023-05-17T12:03:49.404Z,2.00
2023-05-17T12:04:49.420Z,2.30
2023-05-17T12:05:49.618Z,1.80
2023-05-17T12:06:49.386Z,2.10
2023-05-17T12:07:50.868Z,2.00
2023-05-17T12:08:49.307Z,2.00
2023-05-17T12:09:49.382Z,2.30
2023-05-17T12:10:49.370Z,2.30
2023-05-17T12:11:49.280Z,1.80
2023-05-17T12:12:49.279Z,2.50
2023-05-17T12:13:49.296Z,2.10
2023-05-17T12:14:49.323Z,2.10
2023-05-17T12:15:49.276Z,2.30
2023-05-17T12:16:49.353Z,2.40
2023-05-17T12:17:51.573Z,2.30
2023-05-17T12:18:49.433Z,2.40
2023-05-17T12:19:49.415Z,2.10
2023-05-17T12:20:49.198Z,2.60
2023-05-17T12:21:49.167Z,2.30
2023-05-17T12:22:49.132Z,2.40
2023-05-17T12:23:50.948Z,2.00
2023-05-17T12:24:49.305Z,1.80
2023-05-17T12:25:49.214Z,2.50
2023-05-17T12:26:49.181Z,2.20
2023-05-17T12:27:51.179Z,2.40
2023-05-17T12:28:49.241Z,2.50
2023-05-17T12:29:49.137Z,2.70
2023-05-17T12:30:49.092Z,2.60
2023-05-17T12:31:49.112Z,2.90
2023-05-17T12:32:49.229Z,2.20
2023-05-17T12:33:49.368Z,2.70
2023-05-17T12:34:49.071Z,2.70
2023-05-17T12:35:49.053Z,2.40
2023-05-17T12:36:49.007Z,2.30
2023-05-17T12:37:49.049Z,2.40
2023-05-17T12:38:49.052Z,2.40
2023-05-17T12:39:49.023Z,2.20
2023-05-17T12:40:49.019Z,2.30
2023-05-17T12:41:48.996Z,2.20
2023-05-17T12:42:48.988Z,2.80
2023-05-17T12:43:49.063Z,2.00
2023-05-17T12:44:48.905Z,2.10
2023-05-17T12:45:49.129Z,2.10
2023-05-17T12:46:48.977Z,2.30
2023-05-17T12:47:48.948Z,2.50
2023-05-17T12:48:48.916Z,2.30
2023-05-17T12:49:48.943Z,2.30
2023-05-17T12:50:48.908Z,2.40
2023-05-17T12:51:48.962Z,2.70
2023-05-17T12:52:48.933Z,2.60
2023-05-17T12:53:48.877Z,2.30
2023-05-17T12:54:48.811Z,2.30
2023-05-17T12:55:48.786Z,2.70
2023-05-17T12:56:48.850Z,2.50
2023-05-17T12:57:48.783Z,2.40
2023-05-17T12:58:48.801Z,2.30
2023-05-17T12:59:48.840Z,2.40
2023-05-17T13:00:48.775Z,3.10
2023-05-17T13:01:48.776Z,2.40
2023-05-17T13:02:48.842Z,2.00
2023-05-17T13:03:48.850Z,2.60
2023-05-17T13:04:48.819Z,3.00
2023-05-17T13:05:48.719Z,2.30
2023-05-17T13:06:48.927Z,2.50
2023-05-17T13:07:48.707Z,2.40
2023-05-17T13:08:48.712Z,2.50
2023-05-17T13:09:48.775Z,2.70
2023-05-17T13:10:48.772Z,2.20
2023-05-17T13:11:48.692Z,2.30
2023-05-17T13:12:48.709Z,2.40
2023-05-17T13:13:48.747Z,2.40
2023-05-17T13:14:48.682Z,2.50
2023-05-17T13:15:50.468Z,2.70
2023-05-17T13:16:48.617Z,2.50
2023-05-17T13:17:48.682Z,3.00
2023-05-17T13:18:48.700Z,2.80